Thomas G. Thompson — KTDQ — position and weather

sailwx.info

Track history (hours):
 
Tides and Currents Weather Stations Pressure Air Temp Water Temp Dewpoint Dewpoint Depression Visibility Wind Speed Wind Dir Waves Ship Positions

Oceanographic research ship Thomas G. Thompson (USA)

Ship's website: http://www.ocean.washington.edu/vessels/TGT/tgt.html

Detailed information on ship capabilities available from University of Delaware's Ocean Information Center.

Owner: UNIVERSITY OF WASHINGTON, SEATTLE, WA. More information available from US FCC via Universal Licensing System and Coast Guard Vessel Documentation Center.

Last reported at 2014-Oct-31 09:16 UTC. Time now 2014-Oct-31 09:46 UTC.
Position N 48°08' W 122°41'.

Type: Other ship. MMSI: 366345000.

Date/timePositionNaut miles runAvg speedWind from/ knotsBaromVisibWave heightAir tempDewpointWater temp
2014-Oct-31 09:16N 48°08' W 122°41'3 4.7
2014-Oct-31 08:31N 48°06' W 122°38'4 3.7
2014-Oct-31 07:33N 48°02' W 122°37'3 2.9
2014-Oct-31 06:33N 47°59' W 122°37'3 3.2
2014-Oct-31 05:33N 47°57' W 122°33'2 2.4
2014-Oct-31 04:33N 47°58' W 122°37'4 3.7
2014-Oct-31 03:33N 47°54' W 122°36'0 0.2
2014-Oct-31 02:33N 47°54' W 122°36'5 4.4
2014-Oct-31 01:32N 47°50' W 122°40'3 2.7
2014-Oct-31 00:33N 47°48' W 122°43'4 4.0
2014-Oct-30 23:29N 47°44' W 122°46'2 2.5
2014-Oct-30 22:33N 47°42' W 122°45'2 2.4
2014-Oct-30 21:33N 47°41' W 122°48'5 4.6
2014-Oct-30 20:33N 47°38' W 122°54'3 3.1
2014-Oct-30 19:33N 47°36' W 122°57'2 2.0
2014-Oct-30 18:33N 47°35' W 122°59'3 2.7
2014-Oct-30 17:33N 47°32' W 123°02'4 4.0
2014-Oct-30 16:33N 47°29' W 123°04'4 3.5
2014-Oct-30 15:33N 47°26' W 123°06'0 0.0
2014-Oct-30 14:33N 47°26' W 123°06'4 3.8
2014-Oct-30 13:33N 47°29' W 123°04'1312.8
2014-Oct-30 12:33N 47°39' W 122°52'1211.7
2014-Oct-30 11:33N 47°49' W 122°42'9 9.2
2014-Oct-30 10:33N 47°57' W 122°38'1110.8
2014-Oct-30 09:33N 47°52' W 122°24'1211.3
2014-Oct-30 08:32N 48°04' W 122°24'1210.7
2014-Oct-30 07:26N 48°14' W 122°34'1 0.7
2014-Oct-30 06:27N 48°14' W 122°33'6 6.2
2014-Oct-30 05:33N 48°09' W 122°32'1211.6
2014-Oct-30 04:33N 48°01' W 122°21'1111.2
2014-Oct-30 03:33N 47°50' W 122°25'7 6.9
2014-Oct-30 02:33N 47°43' W 122°27'1 0.8
2014-Oct-30 01:33N 47°42' W 122°27'1 1.4
2014-Oct-30 00:33N 47°41' W 122°27'1312.8
2014-Oct-29 23:33N 47°28' W 122°24'10 9.6
2014-Oct-29 22:33N 47°19' W 122°30'8 8.4
2014-Oct-29 21:33N 47°13' W 122°38'4 2.0
2014-Oct-29 19:26N 47°17' W 122°42'5 6.2
2014-Oct-29 18:33N 47°15' W 122°34'10 9.9
2014-Oct-29 17:33N 47°22' W 122°24'1111.3
2014-Oct-29 16:33N 47°33' W 122°27'5 5.0
2014-Oct-29 15:29N 47°38' W 122°23'0 0.0
2014-Oct-29 14:29N 47°38' W 122°23'0 0.0
2014-Oct-29 13:32N 47°38' W 122°23'0 0.0
2014-Oct-29 12:32N 47°38' W 122°23'0 0.0
2014-Oct-29 11:32N 47°38' W 122°23'0 0.0
2014-Oct-29 10:32N 47°38' W 122°23'0 0.0
2014-Oct-29 09:32N 47°38' W 122°23'0 0.0
2014-Oct-29 08:32N 47°38' W 122°23'0 0.0
2014-Oct-29 07:32N 47°38' W 122°23'0 0.0
2014-Oct-29 06:32N 47°38' W 122°23'0 0.0
2014-Oct-29 05:32N 47°38' W 122°23'0 0.0
2014-Oct-29 04:32N 47°38' W 122°23'0 0.0
2014-Oct-29 03:26N 47°38' W 122°23'0 0.0
2014-Oct-29 02:32N 47°38' W 122°23'0 0.0
2014-Oct-29 01:32N 47°38' W 122°23'0 0.0
2014-Oct-29 00:32N 47°38' W 122°23'0 0.0
2014-Oct-28 23:14N 47°38' W 122°23'0 0.0
2014-Oct-28 21:20N 47°38' W 122°23'1 1.0
2014-Oct-28 20:33N 47°37' W 122°24'4 4.1
2014-Oct-28 19:33N 47°34' W 122°26'6 6.1
2014-Oct-28 18:33N 47°28' W 122°24'3 2.6
2014-Oct-28 17:33N 47°30' W 122°26'8 7.5
2014-Oct-28 16:33N 47°38' W 122°23'0 0.0
2014-Oct-28 15:32N 47°38' W 122°23'0 0.0
2014-Oct-28 14:33N 47°38' W 122°23'5 4.7
2014-Oct-28 13:33N 47°41' W 122°28'9 8.8
2014-Oct-28 12:34N 47°49' W 122°24'2 2.0
2014-Oct-28 11:33N 47°51' W 122°25'1 1.1
2014-Oct-28 10:33N 47°51' W 122°27'2 2.3
2014-Oct-28 09:33N 47°49' W 122°26'1 0.6
2014-Oct-28 08:33N 47°50' W 122°26'2 2.2
2014-Oct-28 07:33N 47°50' W 122°23'3 3.3
2014-Oct-28 06:33N 47°53' W 122°21'4 3.6
2014-Oct-28 05:33N 47°50' W 122°24'1 0.7
2014-Oct-28 04:33N 47°51' W 122°24'2 1.8
2014-Oct-28 03:34N 47°51' W 122°26'9 8.9
2014-Oct-28 02:33N 47°42' W 122°27'5 4.7
2014-Oct-28 01:32N 47°38' W 122°23'0 0.0
2014-Oct-28 00:33N 47°38' W 122°23'2 1.6
2014-Oct-27 23:34N 47°36' W 122°22'0 0.0
2014-Oct-27 22:33N 47°36' W 122°22'1 1.0
2014-Oct-27 21:33N 47°37' W 122°23'1 0.7
2014-Oct-27 20:23N 47°38' W 122°23'0 0.0
2014-Oct-27 19:26N 47°38' W 122°23'0 0.0
2014-Oct-27 18:32N 47°38' W 122°23'0 0.0
2014-Oct-27 17:32N 47°38' W 122°23'0 0.0
2014-Oct-27 16:32N 47°38' W 122°23'0 0.0
2014-Oct-27 15:32N 47°38' W 122°23'0 0.0
2014-Oct-27 14:29N 47°38' W 122°23'0 0.0
2014-Oct-27 13:26N 47°38' W 122°23'0 0.0
2014-Oct-27 12:26N 47°38' W 122°23'0 0.0
2014-Oct-27 11:23N 47°38' W 122°23'0 0.0
2014-Oct-27 10:32N 47°38' W 122°23'0 0.0
2014-Oct-27 09:29N 47°38' W 122°23'0 0.0
2014-Oct-27 08:32N 47°38' W 122°23'0 0.0
2014-Oct-27 07:20N 47°38' W 122°23'0 0.0
2014-Oct-27 06:29N 47°38' W 122°23'0 0.0
2014-Oct-27 05:32N 47°38' W 122°23'0 0.0
2014-Oct-27 04:23N 47°38' W 122°23'0 0.0
2014-Oct-27 03:08N 47°38' W 122°23'0 0.0
2014-Oct-27 02:32N 47°38' W 122°23'0 0.0
2014-Oct-27 01:32N 47°38' W 122°23'0 0.0
2014-Oct-27 00:32N 47°38' W 122°23'0 0.0
2014-Oct-26 23:32N 47°38' W 122°23'0 0.0
2014-Oct-26 22:29N 47°38' W 122°23'0 0.0
2014-Oct-26 21:26N 47°38' W 122°23'0 0.0
2014-Oct-26 20:26N 47°38' W 122°23'0 0.0
2014-Oct-26 19:32N 47°38' W 122°23'0 0.0
2014-Oct-26 18:20N 47°38' W 122°23'0 0.0
2014-Oct-26 17:32N 47°38' W 122°23'3 3.2
2014-Oct-26 16:33N 47°39' W 122°27'4 4.1
2014-Oct-26 15:33N 47°43' W 122°29'3 3.1
2014-Oct-26 14:33N 47°46' W 122°27'1212.4
2014-Oct-26 13:33N 47°57' W 122°34'1412.8
2014-Oct-26 12:27N 48°09' W 122°45'1412.9
2014-Oct-26 11:20N 48°12' W 123°06'1113.0
2014-Oct-26 10:30N 48°13' W 123°22'1010.7
2014-Oct-26 09:32N 48°14' W 123°38'0 0.0
2014-Oct-26 08:33N 48°14' W 123°38'4 3.9
2014-Oct-26 07:33N 48°13' W 123°44'8 8.0
2014-Oct-26 06:32N 48°14' W 123°56'3 2.4
2014-Oct-26 05:27N 48°15' W 123°59'3 3.8
2014-Oct-26 04:33N 48°16' W 124°04'7 6.5
2014-Oct-26 03:32N 48°18' W 124°13'3 2.9
2014-Oct-26 02:33N 48°20' W 124°17'7 7.1
2014-Oct-26 01:33N 48°24' W 124°26'2 1.7
2014-Oct-26 00:33N 48°24' W 124°28'8 7.7
2014-Oct-25 23:33N 48°27' W 124°39'6 5.5
2014-Oct-25 22:33N 48°28' W 124°47'2 1.8
2014-Oct-25 21:32N 48°28' W 124°50'7 6.9
2014-Oct-25 20:31N 48°28' W 125°00'12 6.2
2014-Oct-25 18:33N 48°16' W 125°01'1 0.5
2014-Oct-25 17:33N 48°16' W 125°02'5 0.2
2014-Oct-24 11:21N 48°12' W 125°02'1011.1
2014-Oct-24 10:29N 48°21' W 125°06'9 9.8
2014-Oct-24 09:32N 48°30' W 125°01'1110.9
2014-Oct-24 08:33N 48°31' W 124°45'1111.1
2014-Oct-24 07:33N 48°27' W 124°29'1211.8
2014-Oct-24 06:33N 48°22' W 124°13'1313.5
2014-Oct-24 05:33N 48°17' W 123°54'1313.0
2014-Oct-24 04:31N 48°15' W 123°34'1414.8
2014-Oct-24 03:33N 48°13' W 123°13'1312.6
2014-Oct-24 02:32N 48°12' W 122°54'2 1.6
2014-Oct-24 01:24N 48°12' W 122°51'1112.4
2014-Oct-24 00:33N 48°06' W 122°39'7 6.1
2014-Oct-23 23:28N 47°59' W 122°37'3 3.6
2014-Oct-23 22:33N 47°57' W 122°33'1211.6
2014-Oct-23 21:33N 47°47' W 122°26'5 4.7
2014-Oct-23 20:33N 47°42' W 122°27'5 4.5
2014-Oct-23 19:34N 47°38' W 122°26'2 1.4
2014-Oct-23 18:20N 47°38' W 122°23'1 0.0
2014-Oct-23 02:32N 47°37' W 122°24'1111.1
2014-Oct-23 01:33N 47°26' W 122°23'9 9.2
2014-Oct-23 00:34N 47°19' W 122°32'1110.7
2014-Oct-22 23:34N 47°10' W 122°39'3 2.9
2014-Oct-22 22:34N 47°07' W 122°41'2 2.3
2014-Oct-22 21:33N 47°09' W 122°39'1212.1
2014-Oct-22 20:34N 47°19' W 122°30'9 9.4
2014-Oct-22 19:33N 47°28' W 122°25'8 8.3
2014-Oct-22 18:33N 47°36' W 122°23'0 0.4
2014-Oct-22 17:34N 47°37' W 122°23'0 0.5
2014-Oct-22 16:34N 47°37' W 122°22'1 1.2
2014-Oct-22 15:33N 47°38' W 122°23'0 0.0
2014-Oct-22 14:28N 47°38' W 122°23'0 0.0
2014-Oct-22 13:31N 47°38' W 122°23'0 0.0
2014-Oct-22 12:31N 47°38' W 122°23'0 0.0
2014-Oct-22 11:31N 47°38' W 122°23'0 0.0
2014-Oct-22 10:31N 47°38' W 122°23'0 0.0
2014-Oct-22 09:28N 47°38' W 122°23'0 0.0
2014-Oct-22 08:25N 47°38' W 122°23'0 0.0
2014-Oct-22 07:31N 47°38' W 122°23'0 0.0
2014-Oct-22 06:31N 47°38' W 122°23'0 0.0
2014-Oct-22 05:25N 47°38' W 122°23'0 0.0
2014-Oct-22 04:31N 47°38' W 122°23'0 0.0
2014-Oct-22 03:31N 47°38' W 122°23'0 0.0
2014-Oct-22 01:25N 47°38' W 122°23'0 0.0
2014-Oct-21 23:31N 47°38' W 122°23'0 0.0
2014-Oct-21 22:31N 47°38' W 122°23'1 1.4
2014-Oct-21 21:33N 47°38' W 122°25'3 2.5
2014-Oct-21 20:33N 47°40' W 122°24'3 3.2
2014-Oct-21 19:31N 47°39' W 122°19'  
Track history (hours):
 
Tides and Currents Weather Stations Pressure Air Temp Water Temp Dewpoint Dewpoint Depression Visibility Wind Speed Wind Dir Waves Ship Positions

Oceanographic research ship Thomas G. Thompson (USA)

Ship's website: http://www.ocean.washington.edu/vessels/TGT/tgt.html

Detailed information on ship capabilities available from University of Delaware's Ocean Information Center.

Owner: UNIVERSITY OF WASHINGTON, SEATTLE, WA. More information available from US FCC via Universal Licensing System and Coast Guard Vessel Documentation Center.

Last reported at 2014-Oct-31 09:16 UTC. Time now 2014-Oct-31 09:46 UTC.
Position N 48°08' W 122°41'.

Type: Other ship. MMSI: 366345000.

Date/timePositionNaut miles runAvg speedWind from/ knotsBaromVisibWave heightAir tempDewpointWater temp
2014-Oct-31 09:16N 48°08' W 122°41'3 4.7
2014-Oct-31 08:31N 48°06' W 122°38'4 3.7
2014-Oct-31 07:33N 48°02' W 122°37'3 2.9
2014-Oct-31 06:33N 47°59' W 122°37'3 3.2
2014-Oct-31 05:33N 47°57' W 122°33'2 2.4
2014-Oct-31 04:33N 47°58' W 122°37'4 3.7
2014-Oct-31 03:33N 47°54' W 122°36'0 0.2
2014-Oct-31 02:33N 47°54' W 122°36'5 4.4
2014-Oct-31 01:32N 47°50' W 122°40'3 2.7
2014-Oct-31 00:33N 47°48' W 122°43'4 4.0
2014-Oct-30 23:29N 47°44' W 122°46'2 2.5
2014-Oct-30 22:33N 47°42' W 122°45'2 2.4
2014-Oct-30 21:33N 47°41' W 122°48'5 4.6
2014-Oct-30 20:33N 47°38' W 122°54'3 3.1
2014-Oct-30 19:33N 47°36' W 122°57'2 2.0
2014-Oct-30 18:33N 47°35' W 122°59'3 2.7
2014-Oct-30 17:33N 47°32' W 123°02'4 4.0
2014-Oct-30 16:33N 47°29' W 123°04'4 3.5
2014-Oct-30 15:33N 47°26' W 123°06'0 0.0
2014-Oct-30 14:33N 47°26' W 123°06'4 3.8
2014-Oct-30 13:33N 47°29' W 123°04'1312.8
2014-Oct-30 12:33N 47°39' W 122°52'1211.7
2014-Oct-30 11:33N 47°49' W 122°42'9 9.2
2014-Oct-30 10:33N 47°57' W 122°38'1110.8
2014-Oct-30 09:33N 47°52' W 122°24'1211.3
2014-Oct-30 08:32N 48°04' W 122°24'1210.7
2014-Oct-30 07:26N 48°14' W 122°34'1 0.7
2014-Oct-30 06:27N 48°14' W 122°33'6 6.2
2014-Oct-30 05:33N 48°09' W 122°32'1211.6
2014-Oct-30 04:33N 48°01' W 122°21'1111.2
2014-Oct-30 03:33N 47°50' W 122°25'7 6.9
2014-Oct-30 02:33N 47°43' W 122°27'1 0.8
2014-Oct-30 01:33N 47°42' W 122°27'1 1.4
2014-Oct-30 00:33N 47°41' W 122°27'1312.8
2014-Oct-29 23:33N 47°28' W 122°24'10 9.6
2014-Oct-29 22:33N 47°19' W 122°30'8 8.4
2014-Oct-29 21:33N 47°13' W 122°38'4 2.0
2014-Oct-29 19:26N 47°17' W 122°42'5 6.2
2014-Oct-29 18:33N 47°15' W 122°34'10 9.9
2014-Oct-29 17:33N 47°22' W 122°24'1111.3
2014-Oct-29 16:33N 47°33' W 122°27'5 5.0
2014-Oct-29 15:29N 47°38' W 122°23'0 0.0
2014-Oct-29 14:29N 47°38' W 122°23'0 0.0
2014-Oct-29 13:32N 47°38' W 122°23'0 0.0
2014-Oct-29 12:32N 47°38' W 122°23'0 0.0
2014-Oct-29 11:32N 47°38' W 122°23'0 0.0
2014-Oct-29 10:32N 47°38' W 122°23'0 0.0
2014-Oct-29 09:32N 47°38' W 122°23'0 0.0
2014-Oct-29 08:32N 47°38' W 122°23'0 0.0
2014-Oct-29 07:32N 47°38' W 122°23'0 0.0
2014-Oct-29 06:32N 47°38' W 122°23'0 0.0
2014-Oct-29 05:32N 47°38' W 122°23'0 0.0
2014-Oct-29 04:32N 47°38' W 122°23'0 0.0
2014-Oct-29 03:26N 47°38' W 122°23'0 0.0
2014-Oct-29 02:32N 47°38' W 122°23'0 0.0
2014-Oct-29 01:32N 47°38' W 122°23'0 0.0
2014-Oct-29 00:32N 47°38' W 122°23'0 0.0
2014-Oct-28 23:14N 47°38' W 122°23'0 0.0
2014-Oct-28 21:20N 47°38' W 122°23'1 1.0
2014-Oct-28 20:33N 47°37' W 122°24'4 4.1
2014-Oct-28 19:33N 47°34' W 122°26'6 6.1
2014-Oct-28 18:33N 47°28' W 122°24'3 2.6
2014-Oct-28 17:33N 47°30' W 122°26'8 7.5
2014-Oct-28 16:33N 47°38' W 122°23'0 0.0
2014-Oct-28 15:32N 47°38' W 122°23'0 0.0
2014-Oct-28 14:33N 47°38' W 122°23'5 4.7
2014-Oct-28 13:33N 47°41' W 122°28'9 8.8
2014-Oct-28 12:34N 47°49' W 122°24'2 2.0
2014-Oct-28 11:33N 47°51' W 122°25'1 1.1
2014-Oct-28 10:33N 47°51' W 122°27'2 2.3
2014-Oct-28 09:33N 47°49' W 122°26'1 0.6
2014-Oct-28 08:33N 47°50' W 122°26'2 2.2
2014-Oct-28 07:33N 47°50' W 122°23'3 3.3
2014-Oct-28 06:33N 47°53' W 122°21'4 3.6
2014-Oct-28 05:33N 47°50' W 122°24'1 0.7
2014-Oct-28 04:33N 47°51' W 122°24'2 1.8
2014-Oct-28 03:34N 47°51' W 122°26'9 8.9
2014-Oct-28 02:33N 47°42' W 122°27'5 4.7
2014-Oct-28 01:32N 47°38' W 122°23'0 0.0
2014-Oct-28 00:33N 47°38' W 122°23'2 1.6
2014-Oct-27 23:34N 47°36' W 122°22'0 0.0
2014-Oct-27 22:33N 47°36' W 122°22'1 1.0
2014-Oct-27 21:33N 47°37' W 122°23'1 0.7
2014-Oct-27 20:23N 47°38' W 122°23'0 0.0
2014-Oct-27 19:26N 47°38' W 122°23'0 0.0
2014-Oct-27 18:32N 47°38' W 122°23'0 0.0
2014-Oct-27 17:32N 47°38' W 122°23'0 0.0
2014-Oct-27 16:32N 47°38' W 122°23'0 0.0
2014-Oct-27 15:32N 47°38' W 122°23'0 0.0
2014-Oct-27 14:29N 47°38' W 122°23'0 0.0
2014-Oct-27 13:26N 47°38' W 122°23'0 0.0
2014-Oct-27 12:26N 47°38' W 122°23'0 0.0
2014-Oct-27 11:23N 47°38' W 122°23'0 0.0
2014-Oct-27 10:32N 47°38' W 122°23'0 0.0
2014-Oct-27 09:29N 47°38' W 122°23'0 0.0
2014-Oct-27 08:32N 47°38' W 122°23'0 0.0
2014-Oct-27 07:20N 47°38' W 122°23'0 0.0
2014-Oct-27 06:29N 47°38' W 122°23'0 0.0
2014-Oct-27 05:32N 47°38' W 122°23'0 0.0
2014-Oct-27 04:23N 47°38' W 122°23'0 0.0
2014-Oct-27 03:08N 47°38' W 122°23'0 0.0
2014-Oct-27 02:32N 47°38' W 122°23'0 0.0
2014-Oct-27 01:32N 47°38' W 122°23'0 0.0
2014-Oct-27 00:32N 47°38' W 122°23'0 0.0
2014-Oct-26 23:32N 47°38' W 122°23'0 0.0
2014-Oct-26 22:29N 47°38' W 122°23'0 0.0
2014-Oct-26 21:26N 47°38' W 122°23'0 0.0
2014-Oct-26 20:26N 47°38' W 122°23'0 0.0
2014-Oct-26 19:32N 47°38' W 122°23'0 0.0
2014-Oct-26 18:20N 47°38' W 122°23'0 0.0
2014-Oct-26 17:32N 47°38' W 122°23'3 3.2
2014-Oct-26 16:33N 47°39' W 122°27'4 4.1
2014-Oct-26 15:33N 47°43' W 122°29'3 3.1
2014-Oct-26 14:33N 47°46' W 122°27'1212.4
2014-Oct-26 13:33N 47°57' W 122°34'1412.8
2014-Oct-26 12:27N 48°09' W 122°45'1412.9
2014-Oct-26 11:20N 48°12' W 123°06'1113.0
2014-Oct-26 10:30N 48°13' W 123°22'1010.7
2014-Oct-26 09:32N 48°14' W 123°38'0 0.0
2014-Oct-26 08:33N 48°14' W 123°38'4 3.9
2014-Oct-26 07:33N 48°13' W 123°44'8 8.0
2014-Oct-26 06:32N 48°14' W 123°56'3 2.4
2014-Oct-26 05:27N 48°15' W 123°59'3 3.8
2014-Oct-26 04:33N 48°16' W 124°04'7 6.5
2014-Oct-26 03:32N 48°18' W 124°13'3 2.9
2014-Oct-26 02:33N 48°20' W 124°17'7 7.1
2014-Oct-26 01:33N 48°24' W 124°26'2 1.7
2014-Oct-26 00:33N 48°24' W 124°28'8 7.7
2014-Oct-25 23:33N 48°27' W 124°39'6 5.5
2014-Oct-25 22:33N 48°28' W 124°47'2 1.8
2014-Oct-25 21:32N 48°28' W 124°50'7 6.9
2014-Oct-25 20:31N 48°28' W 125°00'12 6.2
2014-Oct-25 18:33N 48°16' W 125°01'1 0.5
2014-Oct-25 17:33N 48°16' W 125°02'5 0.2
2014-Oct-24 11:21N 48°12' W 125°02'1011.1
2014-Oct-24 10:29N 48°21' W 125°06'9 9.8
2014-Oct-24 09:32N 48°30' W 125°01'1110.9
2014-Oct-24 08:33N 48°31' W 124°45'1111.1
2014-Oct-24 07:33N 48°27' W 124°29'1211.8
2014-Oct-24 06:33N 48°22' W 124°13'1313.5
2014-Oct-24 05:33N 48°17' W 123°54'1313.0
2014-Oct-24 04:31N 48°15' W 123°34'1414.8
2014-Oct-24 03:33N 48°13' W 123°13'1312.6
2014-Oct-24 02:32N 48°12' W 122°54'2 1.6
2014-Oct-24 01:24N 48°12' W 122°51'1112.4
2014-Oct-24 00:33N 48°06' W 122°39'7 6.1
2014-Oct-23 23:28N 47°59' W 122°37'3 3.6
2014-Oct-23 22:33N 47°57' W 122°33'1211.6
2014-Oct-23 21:33N 47°47' W 122°26'5 4.7
2014-Oct-23 20:33N 47°42' W 122°27'5 4.5
2014-Oct-23 19:34N 47°38' W 122°26'2 1.4
2014-Oct-23 18:20N 47°38' W 122°23'1 0.0
2014-Oct-23 02:32N 47°37' W 122°24'1111.1
2014-Oct-23 01:33N 47°26' W 122°23'9 9.2
2014-Oct-23 00:34N 47°19' W 122°32'1110.7
2014-Oct-22 23:34N 47°10' W 122°39'3 2.9
2014-Oct-22 22:34N 47°07' W 122°41'2 2.3
2014-Oct-22 21:33N 47°09' W 122°39'1212.1
2014-Oct-22 20:34N 47°19' W 122°30'9 9.4
2014-Oct-22 19:33N 47°28' W 122°25'8 8.3
2014-Oct-22 18:33N 47°36' W 122°23'0 0.4
2014-Oct-22 17:34N 47°37' W 122°23'0 0.5
2014-Oct-22 16:34N 47°37' W 122°22'1 1.2
2014-Oct-22 15:33N 47°38' W 122°23'0 0.0
2014-Oct-22 14:28N 47°38' W 122°23'0 0.0
2014-Oct-22 13:31N 47°38' W 122°23'0 0.0
2014-Oct-22 12:31N 47°38' W 122°23'0 0.0
2014-Oct-22 11:31N 47°38' W 122°23'0 0.0
2014-Oct-22 10:31N 47°38' W 122°23'0 0.0
2014-Oct-22 09:28N 47°38' W 122°23'0 0.0
2014-Oct-22 08:25N 47°38' W 122°23'0 0.0
2014-Oct-22 07:31N 47°38' W 122°23'0 0.0
2014-Oct-22 06:31N 47°38' W 122°23'0 0.0
2014-Oct-22 05:25N 47°38' W 122°23'0 0.0
2014-Oct-22 04:31N 47°38' W 122°23'0 0.0
2014-Oct-22 03:31N 47°38' W 122°23'0 0.0
2014-Oct-22 01:25N 47°38' W 122°23'0 0.0
2014-Oct-21 23:31N 47°38' W 122°23'0 0.0
2014-Oct-21 22:31N 47°38' W 122°23'1 1.4
2014-Oct-21 21:33N 47°38' W 122°25'3 2.5
2014-Oct-21 20:33N 47°40' W 122°24'3 3.2
2014-Oct-21 19:31N 47°39' W 122°19'  

Dump ship's entire track history